sensor_id;sensor_type;location;lat;lon;timestamp;temperature;humidity
11079;DHT22;5592;49.234;7.268;2023-01-25T00:00:05;1.80;99.90
11079;DHT22;5592;49.234;7.268;2023-01-25T00:02:31;1.90;99.90
11079;DHT22;5592;49.234;7.268;2023-01-25T00:04:57;1.90;99.90
11079;DHT22;5592;49.234;7.268;2023-01-25T00:07:22;1.90;99.90
11079;DHT22;5592;49.234;7.268;2023-01-25T00:09:48;1.90;99.90
11079;DHT22;5592;49.234;7.268;2023-01-25T00:12:13;1.90;99.90
11079;DHT22;5592;49.234;7.268;2023-01-25T00:14:39;1.90;99.90
11079;DHT22;5592;49.234;7.268;2023-01-25T00:17:05;1.80;99.90
11079;DHT22;5592;49.234;7.268;2023-01-25T00:19:30;1.80;99.90
11079;DHT22;5592;49.234;7.268;2023-01-25T00:21:56;1.80;99.90
11079;DHT22;5592;49.234;7.268;2023-01-25T00:24:22;1.80;99.90
11079;DHT22;5592;49.234;7.268;2023-01-25T00:26:48;1.80;99.90
11079;DHT22;5592;49.234;7.268;2023-01-25T00:29:14;1.80;99.90
11079;DHT22;5592;49.234;7.268;2023-01-25T00:37:14;1.80;99.90
11079;DHT22;5592;49.234;7.268;2023-01-25T00:39:43;1.90;99.90
11079;DHT22;5592;49.234;7.268;2023-01-25T00:42:12;1.90;99.90
11079;DHT22;5592;49.234;7.268;2023-01-25T00:44:39;1.90;99.90
11079;DHT22;5592;49.234;7.268;2023-01-25T00:47:05;1.90;99.90
11079;DHT22;5592;49.234;7.268;2023-01-25T00:49:31;1.80;99.90
11079;DHT22;5592;49.234;7.268;2023-01-25T00:51:57;1.80;99.90
11079;DHT22;5592;49.234;7.268;2023-01-25T00:54:23;1.80;99.90
11079;DHT22;5592;49.234;7.268;2023-01-25T00:56:49;1.80;99.90
11079;DHT22;5592;49.234;7.268;2023-01-25T00:59:21;1.80;99.90
11079;DHT22;5592;49.234;7.268;2023-01-25T01:01:46;1.90;99.90
11079;DHT22;5592;49.234;7.268;2023-01-25T01:04:12;1.90;99.90
11079;DHT22;5592;49.234;7.268;2023-01-25T01:06:38;1.80;99.90
11079;DHT22;5592;49.234;7.268;2023-01-25T01:09:06;1.80;99.90
11079;DHT22;5592;49.234;7.268;2023-01-25T01:11:32;1.80;99.90
11079;DHT22;5592;49.234;7.268;2023-01-25T01:14:07;1.80;99.90
11079;DHT22;5592;49.234;7.268;2023-01-25T01:16:33;1.70;99.90
11079;DHT22;5592;49.234;7.268;2023-01-25T01:18:59;1.80;99.90
11079;DHT22;5592;49.234;7.268;2023-01-25T01:21:25;1.80;99.90
11079;DHT22;5592;49.234;7.268;2023-01-25T01:23:50;1.80;99.90
11079;DHT22;5592;49.234;7.268;2023-01-25T01:26:17;1.80;99.90
11079;DHT22;5592;49.234;7.268;2023-01-25T01:28:46;1.80;99.90
11079;DHT22;5592;49.234;7.268;2023-01-25T01:31:17;1.80;99.90
11079;DHT22;5592;49.234;7.268;2023-01-25T01:33:43;1.90;99.90
11079;DHT22;5592;49.234;7.268;2023-01-25T01:36:16;1.80;99.90
11079;DHT22;5592;49.234;7.268;2023-01-25T01:38:43;1.80;99.90
11079;DHT22;5592;49.234;7.268;2023-01-25T01:41:10;1.80;99.90
11079;DHT22;5592;49.234;7.268;2023-01-25T01:43:36;1.80;99.90
11079;DHT22;5592;49.234;7.268;2023-01-25T01:46:22;1.80;99.90
11079;DHT22;5592;49.234;7.268;2023-01-25T01:51:51;1.70;99.90
11079;DHT22;5592;49.234;7.268;2023-01-25T01:56:58;1.70;99.90
11079;DHT22;5592;49.234;7.268;2023-01-25T01:59:31;1.80;99.90
11079;DHT22;5592;49.234;7.268;2023-01-25T02:01:57;1.70;99.90
11079;DHT22;5592;49.234;7.268;2023-01-25T02:04:24;1.70;99.90
11079;DHT22;5592;49.234;7.268;2023-01-25T02:06:59;1.70;99.90
11079;DHT22;5592;49.234;7.268;2023-01-25T02:09:28;1.70;99.90
11079;DHT22;5592;49.234;7.268;2023-01-25T02:11:56;1.70;99.90
11079;DHT22;5592;49.234;7.268;2023-01-25T02:14:24;1.70;99.90
11079;DHT22;5592;49.234;7.268;2023-01-25T02:16:51;1.70;99.90
11079;DHT22;5592;49.234;7.268;2023-01-25T02:19:36;1.70;99.90
11079;DHT22;5592;49.234;7.268;2023-01-25T02:22:06;1.70;99.90
11079;DHT22;5592;49.234;7.268;2023-01-25T02:24:37;1.70;99.90
11079;DHT22;5592;49.234;7.268;2023-01-25T02:27:04;1.70;99.90
11079;DHT22;5592;49.234;7.268;2023-01-25T02:29:30;1.70;99.90
11079;DHT22;5592;49.234;7.268;2023-01-25T02:32:01;1.70;99.90
11079;DHT22;5592;49.234;7.268;2023-01-25T02:34:27;1.70;99.90
11079;DHT22;5592;49.234;7.268;2023-01-25T02:36:53;1.70;99.90
11079;DHT22;5592;49.234;7.268;2023-01-25T02:39:19;1.70;99.90
11079;DHT22;5592;49.234;7.268;2023-01-25T02:44:28;1.70;99.90
11079;DHT22;5592;49.234;7.268;2023-01-25T02:46:54;1.80;99.90
11079;DHT22;5592;49.234;7.268;2023-01-25T02:49:20;1.80;99.90
11079;DHT22;5592;49.234;7.268;2023-01-25T02:51:49;1.70;99.90
11079;DHT22;5592;49.234;7.268;2023-01-25T02:54:17;1.80;99.90
11079;DHT22;5592;49.234;7.268;2023-01-25T02:56:43;1.80;99.90
11079;DHT22;5592;49.234;7.268;2023-01-25T02:59:10;1.80;99.90
11079;DHT22;5592;49.234;7.268;2023-01-25T03:01:39;1.90;99.90
11079;DHT22;5592;49.234;7.268;2023-01-25T03:04:05;1.90;99.90
11079;DHT22;5592;49.234;7.268;2023-01-25T03:06:32;1.90;99.90
11079;DHT22;5592;49.234;7.268;2023-01-25T03:08:58;1.80;99.90
11079;DHT22;5592;49.234;7.268;2023-01-25T03:11:24;1.90;99.90
11079;DHT22;5592;49.234;7.268;2023-01-25T03:13:50;1.80;99.90
11079;DHT22;5592;49.234;7.268;2023-01-25T03:16:15;1.70;99.90
11079;DHT22;5592;49.234;7.268;2023-01-25T03:18:41;1.80;99.90
11079;DHT22;5592;49.234;7.268;2023-01-25T03:21:12;1.80;99.90
11079;DHT22;5592;49.234;7.268;2023-01-25T03:23:39;1.80;99.90
11079;DHT22;5592;49.234;7.268;2023-01-25T03:26:18;1.70;99.90
11079;DHT22;5592;49.234;7.268;2023-01-25T03:28:44;1.70;99.90
11079;DHT22;5592;49.234;7.268;2023-01-25T03:31:13;1.70;99.90
11079;DHT22;5592;49.234;7.268;2023-01-25T03:33:40;1.70;99.90
11079;DHT22;5592;49.234;7.268;2023-01-25T03:36:06;1.70;99.90
11079;DHT22;5592;49.234;7.268;2023-01-25T03:38:33;1.70;99.90
11079;DHT22;5592;49.234;7.268;2023-01-25T03:40:59;1.70;99.90
11079;DHT22;5592;49.234;7.268;2023-01-25T03:43:25;1.70;99.90
11079;DHT22;5592;49.234;7.268;2023-01-25T03:45:52;1.70;99.90
11079;DHT22;5592;49.234;7.268;2023-01-25T03:48:19;1.60;99.90
11079;DHT22;5592;49.234;7.268;2023-01-25T03:50:50;1.60;99.90
11079;DHT22;5592;49.234;7.268;2023-01-25T03:53:22;1.60;99.90
11079;DHT22;5592;49.234;7.268;2023-01-25T03:56:03;1.60;99.90
11079;DHT22;5592;49.234;7.268;2023-01-25T03:58:29;1.70;99.90
11079;DHT22;5592;49.234;7.268;2023-01-25T04:00:57;1.70;99.90
11079;DHT22;5592;49.234;7.268;2023-01-25T04:03:23;1.70;99.90
11079;DHT22;5592;49.234;7.268;2023-01-25T04:05:50;1.80;99.90
11079;DHT22;5592;49.234;7.268;2023-01-25T04:08:16;1.70;99.90
11079;DHT22;5592;49.234;7.268;2023-01-25T04:10:41;1.70;99.90
11079;DHT22;5592;49.234;7.268;2023-01-25T04:13:07;1.70;99.90
11079;DHT22;5592;49.234;7.268;2023-01-25T04:15:33;1.80;99.90
11079;DHT22;5592;49.234;7.268;2023-01-25T04:17:59;1.80;99.90
11079;DHT22;5592;49.234;7.268;2023-01-25T04:20:24;1.80;99.90
11079;DHT22;5592;49.234;7.268;2023-01-25T04:22:50;1.70;99.90
11079;DHT22;5592;49.234;7.268;2023-01-25T04:25:16;1.70;99.90
11079;DHT22;5592;49.234;7.268;2023-01-25T04:27:41;1.70;99.90
11079;DHT22;5592;49.234;7.268;2023-01-25T04:30:07;1.70;99.90
11079;DHT22;5592;49.234;7.268;2023-01-25T04:32:34;1.70;99.90
11079;DHT22;5592;49.234;7.268;2023-01-25T04:35:00;1.70;99.90
11079;DHT22;5592;49.234;7.268;2023-01-25T04:37:25;1.60;99.90
11079;DHT22;5592;49.234;7.268;2023-01-25T04:39:51;1.60;99.90
11079;DHT22;5592;49.234;7.268;2023-01-25T04:42:17;1.60;99.90
11079;DHT22;5592;49.234;7.268;2023-01-25T04:44:42;1.50;99.90
11079;DHT22;5592;49.234;7.268;2023-01-25T04:47:08;1.50;99.90
11079;DHT22;5592;49.234;7.268;2023-01-25T04:49:34;1.60;99.90
11079;DHT22;5592;49.234;7.268;2023-01-25T04:51:59;1.50;99.90
11079;DHT22;5592;49.234;7.268;2023-01-25T04:54:25;1.60;99.90
11079;DHT22;5592;49.234;7.268;2023-01-25T04:56:51;1.60;99.90
11079;DHT22;5592;49.234;7.268;2023-01-25T04:59:16;1.60;99.90
11079;DHT22;5592;49.234;7.268;2023-01-25T05:01:42;1.50;99.90
11079;DHT22;5592;49.234;7.268;2023-01-25T05:04:07;1.50;99.90
11079;DHT22;5592;49.234;7.268;2023-01-25T05:06:33;1.60;99.90
11079;DHT22;5592;49.234;7.268;2023-01-25T05:08:59;1.50;99.90
11079;DHT22;5592;49.234;7.268;2023-01-25T05:11:24;1.50;99.90
11079;DHT22;5592;49.234;7.268;2023-01-25T05:13:50;1.50;99.90
11079;DHT22;5592;49.234;7.268;2023-01-25T05:16:16;1.50;99.90
11079;DHT22;5592;49.234;7.268;2023-01-25T05:18:42;1.50;99.90
11079;DHT22;5592;49.234;7.268;2023-01-25T05:21:07;1.40;99.90
11079;DHT22;5592;49.234;7.268;2023-01-25T05:23:53;1.50;99.90
11079;DHT22;5592;49.234;7.268;2023-01-25T05:26:19;1.50;99.90
11079;DHT22;5592;49.234;7.268;2023-01-25T05:29:10;1.60;99.90
11079;DHT22;5592;49.234;7.268;2023-01-25T05:31:36;1.60;99.90
11079;DHT22;5592;49.234;7.268;2023-01-25T05:34:01;1.60;99.90
11079;DHT22;5592;49.234;7.268;2023-01-25T05:36:27;1.60;99.90
11079;DHT22;5592;49.234;7.268;2023-01-25T05:38:52;1.60;99.90
11079;DHT22;5592;49.234;7.268;2023-01-25T05:41:21;1.60;99.90
11079;DHT22;5592;49.234;7.268;2023-01-25T05:43:48;1.60;99.90
11079;DHT22;5592;49.234;7.268;2023-01-25T05:46:14;1.60;99.90
11079;DHT22;5592;49.234;7.268;2023-01-25T05:48:39;1.60;99.90
11079;DHT22;5592;49.234;7.268;2023-01-25T05:51:05;1.50;99.90
11079;DHT22;5592;49.234;7.268;2023-01-25T05:53:31;1.60;99.90
11079;DHT22;5592;49.234;7.268;2023-01-25T05:56:03;1.60;99.90
11079;DHT22;5592;49.234;7.268;2023-01-25T05:58:29;1.60;99.90
11079;DHT22;5592;49.234;7.268;2023-01-25T06:00:54;1.60;99.90
11079;DHT22;5592;49.234;7.268;2023-01-25T06:03:20;1.60;99.90
11079;DHT22;5592;49.234;7.268;2023-01-25T06:05:45;1.60;99.90
11079;DHT22;5592;49.234;7.268;2023-01-25T06:08:11;1.60;99.90
11079;DHT22;5592;49.234;7.268;2023-01-25T06:10:36;1.60;99.90
11079;DHT22;5592;49.234;7.268;2023-01-25T06:13:02;1.50;99.90
11079;DHT22;5592;49.234;7.268;2023-01-25T06:15:27;1.60;99.90
11079;DHT22;5592;49.234;7.268;2023-01-25T06:17:54;1.50;99.90
11079;DHT22;5592;49.234;7.268;2023-01-25T06:20:20;1.50;99.90
11079;DHT22;5592;49.234;7.268;2023-01-25T06:22:50;1.50;99.90
11079;DHT22;5592;49.234;7.268;2023-01-25T06:25:16;1.50;99.90
11079;DHT22;5592;49.234;7.268;2023-01-25T06:27:42;1.50;99.90
11079;DHT22;5592;49.234;7.268;2023-01-25T06:30:08;1.50;99.90
11079;DHT22;5592;49.234;7.268;2023-01-25T06:32:34;1.50;99.90
11079;DHT22;5592;49.234;7.268;2023-01-25T06:35:00;1.40;99.90
11079;DHT22;5592;49.234;7.268;2023-01-25T06:37:25;1.50;99.90
11079;DHT22;5592;49.234;7.268;2023-01-25T06:39:51;1.50;99.90
11079;DHT22;5592;49.234;7.268;2023-01-25T06:42:17;1.40;99.90
11079;DHT22;5592;49.234;7.268;2023-01-25T06:44:43;1.40;99.90
11079;DHT22;5592;49.234;7.268;2023-01-25T06:47:09;1.50;99.90
11079;DHT22;5592;49.234;7.268;2023-01-25T06:49:35;1.50;99.90
11079;DHT22;5592;49.234;7.268;2023-01-25T06:52:01;1.50;99.90
11079;DHT22;5592;49.234;7.268;2023-01-25T06:54:27;1.50;99.90
11079;DHT22;5592;49.234;7.268;2023-01-25T06:56:52;1.50;99.90
11079;DHT22;5592;49.234;7.268;2023-01-25T06:59:18;1.50;99.90
11079;DHT22;5592;49.234;7.268;2023-01-25T07:01:44;1.50;99.90
11079;DHT22;5592;49.234;7.268;2023-01-25T07:04:10;1.50;99.90
11079;DHT22;5592;49.234;7.268;2023-01-25T07:06:38;1.60;99.90
11079;DHT22;5592;49.234;7.268;2023-01-25T07:09:12;1.60;99.90
11079;DHT22;5592;49.234;7.268;2023-01-25T07:11:40;1.60;99.90
11079;DHT22;5592;49.234;7.268;2023-01-25T07:14:07;1.60;99.90
11079;DHT22;5592;49.234;7.268;2023-01-25T07:16:34;1.60;99.90
11079;DHT22;5592;49.234;7.268;2023-01-25T07:19:06;1.70;99.90
11079;DHT22;5592;49.234;7.268;2023-01-25T07:21:34;1.70;99.90
11079;DHT22;5592;49.234;7.268;2023-01-25T07:24:01;1.60;99.90
11079;DHT22;5592;49.234;7.268;2023-01-25T07:26:27;1.60;99.90
11079;DHT22;5592;49.234;7.268;2023-01-25T07:28:53;1.70;99.90
11079;DHT22;5592;49.234;7.268;2023-01-25T07:31:20;1.70;99.90
11079;DHT22;5592;49.234;7.268;2023-01-25T07:33:53;1.70;99.90
11079;DHT22;5592;49.234;7.268;2023-01-25T07:36:19;1.80;99.90
11079;DHT22;5592;49.234;7.268;2023-01-25T07:38:45;1.80;99.90
11079;DHT22;5592;49.234;7.268;2023-01-25T07:41:11;1.70;99.90
11079;DHT22;5592;49.234;7.268;2023-01-25T07:43:37;1.80;99.90
11079;DHT22;5592;49.234;7.268;2023-01-25T07:46:06;1.80;99.90
11079;DHT22;5592;49.234;7.268;2023-01-25T07:48:32;1.70;99.90
11079;DHT22;5592;49.234;7.268;2023-01-25T07:51:00;1.70;99.90
11079;DHT22;5592;49.234;7.268;2023-01-25T07:53:45;1.60;99.90
11079;DHT22;5592;49.234;7.268;2023-01-25T07:56:11;1.70;99.90
11079;DHT22;5592;49.234;7.268;2023-01-25T07:58:37;1.80;99.90
11079;DHT22;5592;49.234;7.268;2023-01-25T08:01:12;1.80;99.90
11079;DHT22;5592;49.234;7.268;2023-01-25T08:03:38;1.80;99.90
11079;DHT22;5592;49.234;7.268;2023-01-25T08:06:05;1.90;99.90
11079;DHT22;5592;49.234;7.268;2023-01-25T08:08:36;1.90;99.90
11079;DHT22;5592;49.234;7.268;2023-01-25T08:11:28;1.90;99.90
11079;DHT22;5592;49.234;7.268;2023-01-25T08:13:57;1.80;99.90
11079;DHT22;5592;49.234;7.268;2023-01-25T08:16:25;1.80;99.90
11079;DHT22;5592;49.234;7.268;2023-01-25T08:18:53;1.80;99.90
11079;DHT22;5592;49.234;7.268;2023-01-25T08:21:20;1.80;99.90
11079;DHT22;5592;49.234;7.268;2023-01-25T08:23:48;1.80;99.90
11079;DHT22;5592;49.234;7.268;2023-01-25T08:26:14;1.80;99.90
11079;DHT22;5592;49.234;7.268;2023-01-25T08:28:41;1.70;99.90
11079;DHT22;5592;49.234;7.268;2023-01-25T08:31:28;1.80;99.90
11079;DHT22;5592;49.234;7.268;2023-01-25T08:33:54;1.80;99.90
11079;DHT22;5592;49.234;7.268;2023-01-25T08:36:20;1.90;99.90
11079;DHT22;5592;49.234;7.268;2023-01-25T08:38:53;1.90;99.90
11079;DHT22;5592;49.234;7.268;2023-01-25T08:41:19;2.00;99.90
11079;DHT22;5592;49.234;7.268;2023-01-25T08:43:45;2.10;99.90
11079;DHT22;5592;49.234;7.268;2023-01-25T08:46:12;2.10;99.90
11079;DHT22;5592;49.234;7.268;2023-01-25T08:48:38;2.10;99.90
11079;DHT22;5592;49.234;7.268;2023-01-25T08:51:07;2.10;99.90
11079;DHT22;5592;49.234;7.268;2023-01-25T08:53:36;2.10;99.90
11079;DHT22;5592;49.234;7.268;2023-01-25T08:56:07;2.10;99.90
11079;DHT22;5592;49.234;7.268;2023-01-25T08:58:33;2.10;99.90
11079;DHT22;5592;49.234;7.268;2023-01-25T09:01:04;2.10;99.90
11079;DHT22;5592;49.234;7.268;2023-01-25T09:03:33;2.00;99.90
11079;DHT22;5592;49.234;7.268;2023-01-25T09:05:59;2.00;99.90
11079;DHT22;5592;49.234;7.268;2023-01-25T09:08:25;2.10;99.90
11079;DHT22;5592;49.234;7.268;2023-01-25T09:10:51;2.00;99.90
11079;DHT22;5592;49.234;7.268;2023-01-25T09:13:17;2.00;99.90
11079;DHT22;5592;49.234;7.268;2023-01-25T09:15:42;2.00;99.90
11079;DHT22;5592;49.234;7.268;2023-01-25T09:18:09;2.00;99.90
11079;DHT22;5592;49.234;7.268;2023-01-25T09:20:40;2.00;99.90
11079;DHT22;5592;49.234;7.268;2023-01-25T09:23:07;2.00;99.90
11079;DHT22;5592;49.234;7.268;2023-01-25T09:25:33;1.90;99.90
11079;DHT22;5592;49.234;7.268;2023-01-25T09:28:00;2.00;99.90
11079;DHT22;5592;49.234;7.268;2023-01-25T09:30:26;2.00;99.90
11079;DHT22;5592;49.234;7.268;2023-01-25T09:32:51;2.10;99.90
11079;DHT22;5592;49.234;7.268;2023-01-25T09:35:17;2.20;99.90
11079;DHT22;5592;49.234;7.268;2023-01-25T09:37:42;2.20;99.90
11079;DHT22;5592;49.234;7.268;2023-01-25T09:40:20;2.10;99.90
11079;DHT22;5592;49.234;7.268;2023-01-25T09:42:52;2.20;99.90
11079;DHT22;5592;49.234;7.268;2023-01-25T09:45:26;2.20;99.90
11079;DHT22;5592;49.234;7.268;2023-01-25T09:56:02;2.20;99.90
11079;DHT22;5592;49.234;7.268;2023-01-25T09:59:18;2.20;99.90
11079;DHT22;5592;49.234;7.268;2023-01-25T10:04:47;2.20;99.90
11079;DHT22;5592;49.234;7.268;2023-01-25T10:06:56;2.10;99.90
11079;DHT22;5592;49.234;7.268;2023-01-25T10:09:46;2.10;99.90
11079;DHT22;5592;49.234;7.268;2023-01-25T10:12:15;2.10;99.90
11079;DHT22;5592;49.234;7.268;2023-01-25T10:14:43;2.20;99.90
11079;DHT22;5592;49.234;7.268;2023-01-25T10:22:23;2.30;99.90
11079;DHT22;5592;49.234;7.268;2023-01-25T10:25:17;2.30;99.90
11079;DHT22;5592;49.234;7.268;2023-01-25T10:28:32;2.30;99.90
11079;DHT22;5592;49.234;7.268;2023-01-25T10:30:38;2.30;99.90
11079;DHT22;5592;49.234;7.268;2023-01-25T10:33:17;2.40;99.90
11079;DHT22;5592;49.234;7.268;2023-01-25T10:35:46;2.30;99.90
11079;DHT22;5592;49.234;7.268;2023-01-25T10:41:04;2.30;99.90
11079;DHT22;5592;49.234;7.268;2023-01-25T10:43:33;2.40;99.90
11079;DHT22;5592;49.234;7.268;2023-01-25T10:45:58;2.30;99.90
11079;DHT22;5592;49.234;7.268;2023-01-25T10:48:28;2.40;99.90
11079;DHT22;5592;49.234;7.268;2023-01-25T10:50:57;2.40;99.90
11079;DHT22;5592;49.234;7.268;2023-01-25T10:53:37;2.50;99.90
11079;DHT22;5592;49.234;7.268;2023-01-25T10:58:46;2.50;99.90
11079;DHT22;5592;49.234;7.268;2023-01-25T11:01:29;2.50;99.90
11079;DHT22;5592;49.234;7.268;2023-01-25T11:03:57;2.30;99.90
11079;DHT22;5592;49.234;7.268;2023-01-25T11:06:35;2.30;99.90
11079;DHT22;5592;49.234;7.268;2023-01-25T11:09:29;2.30;99.90
11079;DHT22;5592;49.234;7.268;2023-01-25T11:11:57;2.20;99.90
11079;DHT22;5592;49.234;7.268;2023-01-25T11:14:27;2.20;99.90
11079;DHT22;5592;49.234;7.268;2023-01-25T11:16:55;2.10;99.90
11079;DHT22;5592;49.234;7.268;2023-01-25T11:19:36;2.10;99.90
11079;DHT22;5592;49.234;7.268;2023-01-25T11:22:22;2.10;99.90
11079;DHT22;5592;49.234;7.268;2023-01-25T11:24:53;2.10;99.90
11079;DHT22;5592;49.234;7.268;2023-01-25T11:27:21;2.10;99.90
11079;DHT22;5592;49.234;7.268;2023-01-25T11:30:07;2.10;99.90
11079;DHT22;5592;49.234;7.268;2023-01-25T11:32:34;2.10;99.90
11079;DHT22;5592;49.234;7.268;2023-01-25T11:35:02;2.10;99.90
11079;DHT22;5592;49.234;7.268;2023-01-25T11:38:09;2.20;99.90
11079;DHT22;5592;49.234;7.268;2023-01-25T11:40:45;2.20;99.90
11079;DHT22;5592;49.234;7.268;2023-01-25T11:51:46;2.00;99.90
11079;DHT22;5592;49.234;7.268;2023-01-25T11:57:51;2.10;99.90
11079;DHT22;5592;49.234;7.268;2023-01-25T12:14:20;2.10;99.90
11079;DHT22;5592;49.234;7.268;2023-01-25T12:23:09;2.10;99.90
11079;DHT22;5592;49.234;7.268;2023-01-25T12:25:53;2.00;99.90
11079;DHT22;5592;49.234;7.268;2023-01-25T12:34:00;2.00;99.90
11079;DHT22;5592;49.234;7.268;2023-01-25T12:36:39;2.10;99.90
11079;DHT22;5592;49.234;7.268;2023-01-25T12:41:47;2.00;99.90
11079;DHT22;5592;49.234;7.268;2023-01-25T12:44:34;1.90;99.90
11079;DHT22;5592;49.234;7.268;2023-01-25T12:47:17;2.00;99.90
11079;DHT22;5592;49.234;7.268;2023-01-25T12:52:33;2.00;99.90
11079;DHT22;5592;49.234;7.268;2023-01-25T12:55:14;2.00;99.90
11079;DHT22;5592;49.234;7.268;2023-01-25T12:57:57;1.90;99.90
11079;DHT22;5592;49.234;7.268;2023-01-25T13:11:19;1.80;99.90
11079;DHT22;5592;49.234;7.268;2023-01-25T13:13:46;1.90;99.90
11079;DHT22;5592;49.234;7.268;2023-01-25T13:16:32;1.90;99.90
11079;DHT22;5592;49.234;7.268;2023-01-25T13:18:59;1.90;99.90
11079;DHT22;5592;49.234;7.268;2023-01-25T13:32:12;1.70;99.90
11079;DHT22;5592;49.234;7.268;2023-01-25T13:37:27;1.80;99.90
11079;DHT22;5592;49.234;7.268;2023-01-25T13:40:05;1.90;99.90
11079;DHT22;5592;49.234;7.268;2023-01-25T13:43:03;1.90;99.90
11079;DHT22;5592;49.234;7.268;2023-01-25T13:45:31;1.90;99.90
11079;DHT22;5592;49.234;7.268;2023-01-25T13:50:35;1.80;99.90
11079;DHT22;5592;49.234;7.268;2023-01-25T13:55:51;1.70;99.90
11079;DHT22;5592;49.234;7.268;2023-01-25T13:58:26;1.80;99.90
11079;DHT22;5592;49.234;7.268;2023-01-25T14:00:57;1.80;99.90
11079;DHT22;5592;49.234;7.268;2023-01-25T14:03:36;1.80;99.90
11079;DHT22;5592;49.234;7.268;2023-01-25T14:06:06;1.80;99.90
11079;DHT22;5592;49.234;7.268;2023-01-25T14:08:39;1.80;99.90
11079;DHT22;5592;49.234;7.268;2023-01-25T14:11:05;1.80;99.90
11079;DHT22;5592;49.234;7.268;2023-01-25T14:13:30;1.70;99.90
11079;DHT22;5592;49.234;7.268;2023-01-25T14:15:58;1.60;99.90
11079;DHT22;5592;49.234;7.268;2023-01-25T14:18:30;1.60;99.90
11079;DHT22;5592;49.234;7.268;2023-01-25T14:23:38;1.70;99.90
11079;DHT22;5592;49.234;7.268;2023-01-25T14:26:17;1.70;99.90
11079;DHT22;5592;49.234;7.268;2023-01-25T14:28:45;1.80;99.90
11079;DHT22;5592;49.234;7.268;2023-01-25T14:31:21;1.80;99.90
11079;DHT22;5592;49.234;7.268;2023-01-25T14:33:48;1.60;99.90
11079;DHT22;5592;49.234;7.268;2023-01-25T14:36:20;1.60;99.90
11079;DHT22;5592;49.234;7.268;2023-01-25T14:38:45;1.60;99.90
11079;DHT22;5592;49.234;7.268;2023-01-25T14:41:28;1.50;99.90
11079;DHT22;5592;49.234;7.268;2023-01-25T14:44:00;1.40;99.90
11079;DHT22;5592;49.234;7.268;2023-01-25T14:46:32;1.40;99.90
11079;DHT22;5592;49.234;7.268;2023-01-25T14:49:19;1.40;99.90
11079;DHT22;5592;49.234;7.268;2023-01-25T14:52:02;1.30;99.90
11079;DHT22;5592;49.234;7.268;2023-01-25T14:54:30;1.40;99.90
11079;DHT22;5592;49.234;7.268;2023-01-25T14:57:07;1.30;99.90
11079;DHT22;5592;49.234;7.268;2023-01-25T14:59:52;1.30;99.90
11079;DHT22;5592;49.234;7.268;2023-01-25T15:02:30;1.30;99.90
11079;DHT22;5592;49.234;7.268;2023-01-25T15:05:17;1.30;99.90
11079;DHT22;5592;49.234;7.268;2023-01-25T15:07:50;1.30;99.90
11079;DHT22;5592;49.234;7.268;2023-01-25T15:13:41;1.30;99.90
11079;DHT22;5592;49.234;7.268;2023-01-25T15:16:08;1.30;99.90
11079;DHT22;5592;49.234;7.268;2023-01-25T15:21:23;1.20;99.90
11079;DHT22;5592;49.234;7.268;2023-01-25T15:23:49;1.20;99.90
11079;DHT22;5592;49.234;7.268;2023-01-25T15:26:20;1.20;99.90
11079;DHT22;5592;49.234;7.268;2023-01-25T15:28:48;1.20;99.90
11079;DHT22;5592;49.234;7.268;2023-01-25T15:31:26;1.20;99.90
11079;DHT22;5592;49.234;7.268;2023-01-25T15:33:53;1.20;99.90
11079;DHT22;5592;49.234;7.268;2023-01-25T15:36:19;1.20;99.90
11079;DHT22;5592;49.234;7.268;2023-01-25T15:38:45;1.10;99.90
11079;DHT22;5592;49.234;7.268;2023-01-25T15:41:12;1.10;99.90
11079;DHT22;5592;49.234;7.268;2023-01-25T15:43:38;1.10;99.90
11079;DHT22;5592;49.234;7.268;2023-01-25T15:46:05;1.10;99.90
11079;DHT22;5592;49.234;7.268;2023-01-25T15:48:37;1.10;99.90
11079;DHT22;5592;49.234;7.268;2023-01-25T15:51:04;1.20;99.90
11079;DHT22;5592;49.234;7.268;2023-01-25T15:53:29;1.30;99.90
11079;DHT22;5592;49.234;7.268;2023-01-25T15:56:27;1.20;99.90
11079;DHT22;5592;49.234;7.268;2023-01-25T15:58:54;1.00;99.90
11079;DHT22;5592;49.234;7.268;2023-01-25T16:01:22;0.90;99.90
11079;DHT22;5592;49.234;7.268;2023-01-25T16:03:48;1.00;99.90
11079;DHT22;5592;49.234;7.268;2023-01-25T16:09:04;1.00;99.90
11079;DHT22;5592;49.234;7.268;2023-01-25T16:11:35;1.00;99.90
11079;DHT22;5592;49.234;7.268;2023-01-25T16:14:01;1.00;99.90
11079;DHT22;5592;49.234;7.268;2023-01-25T16:16:26;0.90;99.90
11079;DHT22;5592;49.234;7.268;2023-01-25T16:18:52;0.80;99.90
11079;DHT22;5592;49.234;7.268;2023-01-25T16:21:18;0.80;99.90
11079;DHT22;5592;49.234;7.268;2023-01-25T16:23:43;0.90;99.90
11079;DHT22;5592;49.234;7.268;2023-01-25T16:26:22;0.80;99.90
11079;DHT22;5592;49.234;7.268;2023-01-25T16:28:48;0.80;99.90
11079;DHT22;5592;49.234;7.268;2023-01-25T16:31:14;0.80;99.90
11079;DHT22;5592;49.234;7.268;2023-01-25T16:33:41;0.80;99.90
11079;DHT22;5592;49.234;7.268;2023-01-25T16:36:17;0.90;99.90
11079;DHT22;5592;49.234;7.268;2023-01-25T16:38:43;0.90;99.90
11079;DHT22;5592;49.234;7.268;2023-01-25T16:41:10;0.80;99.90
11079;DHT22;5592;49.234;7.268;2023-01-25T16:43:41;0.90;99.90
11079;DHT22;5592;49.234;7.268;2023-01-25T16:46:37;1.00;99.90
11079;DHT22;5592;49.234;7.268;2023-01-25T16:49:04;0.90;99.90
11079;DHT22;5592;49.234;7.268;2023-01-25T16:51:33;0.90;99.90
11079;DHT22;5592;49.234;7.268;2023-01-25T16:54:00;0.90;99.90
11079;DHT22;5592;49.234;7.268;2023-01-25T16:56:29;0.90;99.90
11079;DHT22;5592;49.234;7.268;2023-01-25T16:58:59;0.80;99.90
11079;DHT22;5592;49.234;7.268;2023-01-25T17:01:25;0.80;99.90
11079;DHT22;5592;49.234;7.268;2023-01-25T17:03:53;0.70;99.90
11079;DHT22;5592;49.234;7.268;2023-01-25T17:06:27;0.70;99.90
11079;DHT22;5592;49.234;7.268;2023-01-25T17:08:59;0.60;99.90
11079;DHT22;5592;49.234;7.268;2023-01-25T17:11:26;0.60;99.90
11079;DHT22;5592;49.234;7.268;2023-01-25T17:13:54;0.60;99.90
11079;DHT22;5592;49.234;7.268;2023-01-25T17:16:21;0.60;99.90
11079;DHT22;5592;49.234;7.268;2023-01-25T17:18:56;0.70;99.90
11079;DHT22;5592;49.234;7.268;2023-01-25T17:21:23;0.60;99.90
11079;DHT22;5592;49.234;7.268;2023-01-25T17:23:49;0.50;99.90
11079;DHT22;5592;49.234;7.268;2023-01-25T17:26:16;0.50;99.90
11079;DHT22;5592;49.234;7.268;2023-01-25T17:28:42;0.50;99.90
11079;DHT22;5592;49.234;7.268;2023-01-25T17:31:15;0.60;99.90
11079;DHT22;5592;49.234;7.268;2023-01-25T17:33:41;0.60;99.90
11079;DHT22;5592;49.234;7.268;2023-01-25T17:36:07;0.60;99.90
11079;DHT22;5592;49.234;7.268;2023-01-25T17:38:33;0.50;99.90
11079;DHT22;5592;49.234;7.268;2023-01-25T17:41:07;0.60;99.90
11079;DHT22;5592;49.234;7.268;2023-01-25T17:43:33;0.60;99.90
11079;DHT22;5592;49.234;7.268;2023-01-25T17:45:59;0.50;99.90
11079;DHT22;5592;49.234;7.268;2023-01-25T17:48:25;0.40;99.90
11079;DHT22;5592;49.234;7.268;2023-01-25T17:51:01;0.50;99.90
11079;DHT22;5592;49.234;7.268;2023-01-25T17:53:27;0.40;99.90
11079;DHT22;5592;49.234;7.268;2023-01-25T17:55:53;0.30;99.90
11079;DHT22;5592;49.234;7.268;2023-01-25T17:58:19;0.40;99.90
11079;DHT22;5592;49.234;7.268;2023-01-25T18:00:45;0.50;99.90
11079;DHT22;5592;49.234;7.268;2023-01-25T18:03:11;0.50;99.90
11079;DHT22;5592;49.234;7.268;2023-01-25T18:05:37;0.40;99.90
11079;DHT22;5592;49.234;7.268;2023-01-25T18:08:03;0.40;99.90
11079;DHT22;5592;49.234;7.268;2023-01-25T18:10:30;0.40;99.90
11079;DHT22;5592;49.234;7.268;2023-01-25T18:12:56;0.50;99.90
11079;DHT22;5592;49.234;7.268;2023-01-25T18:15:22;0.50;99.90